Airfield :
LOGIN :

Register | Disclaimer

   EN    FR    IT 

 










Legend :    VFR   Marginal VFR   IFR   Intensive IFR   Very Intensive IFR
Visi :
Ceiling :
>= 8 km
>= 3000ft
5 to 8 km
1000 to 3000 ft
1500m to 5 km
500 to 1000 ft
800 to 1500m
200 to 500 ft
< 800m
< 200 ft
Symbols :   Thunderstorms  Fog  Heavy snow  Heavy precipitations  Wind > 20 kt
SIGMETs :     Misc.  Thunderstorms  Icing  Turbulence  Mountain Waves  Volcanic Ashes







- Airport Elevation : 598 ft
- IATA code : BQH
- Download approach charts


EGKB - Biggin Hill

CURRENT METAR :
  • 181420Z 06012KT 030V100 CAVOK 18/07 Q1023

EXPIRED METARs :
  • 181350Z 07011KT 030V100 8000 NSC 18/07 Q1023
  • 181320Z 06013KT 030V100 8000 NSC 19/07 Q1023
  • 181250Z 07012KT 040V100 8000 NSC 19/08 Q1023
  • 181220Z 06013KT 8000 NSC 18/11 Q1023
  • 181150Z 06012KT 030V100 6000 FEW020 17/10 Q1023
  • 181120Z 05012KT 030V090 6000 FEW020 17/11 Q1023

TAF TAF EGKB
Valid from the 18 at 12:00 until the 18 at 21:00 UTC


181105Z 1812/1821 07009KT 6000 NSC
BECMG 1812/1815 CAVOK
PROB40
TEMPO 1820/1821 8000
No reported NOTAMs for that airfield.



MET'MAP, your aeronautical weather chart ! - Copyright ORBIFLY December 2007 - Disclaimer

ORBIFLY MET'MAP TEAM :

Programming & Development : Alexandra Zaïnal
Concept & Development : Baudouin d'Aumeries
Co-Development & Prog : Marc-Olivier Méhu
Technical & hardware support : Manuel Goepfert

Contact : metmap@orbifly.com




SOURCES & CREDITS :

   NOAA